Main page
METAR-TAF:

METAR-TAF

Airports :

Avignon – Provence Airport

Avignon, France

latitude: 43-54-26N, longitude: 004-54-07E, elevation: 38 m

Current weather observation

The report was made 14 minutes ago, at 05:30 UTC
Wind 24 kt from the North/Northwest with gusts up to 35 kt
Temperature 8°C
Humidity 53%
Pressure 1012 hPa
Visibility 10 km or more
no clouds below 1500 m and no cumulonimbus

METAR: LFMV 240530Z AUTO 34024G35KT CAVOK 08/M01 Q1012 NOSIG

Time: 07:44 (05:44 UTC)

Forecast

The report was made 3 hours and 44 minutes ago, at 02:00 UTC
Forecast valid from 24 at 03 UTC to 25 at 03 UTC
Wind 25 kt from the North/Northwest with gusts up to 40 kt
Visibility 10 km or more
no clouds below 1500 m and no cumulonimbus
Becoming
from 24 at 13 UTC to 24 at 15 UTC
Wind 20 kt from the North with gusts up to 30 kt
Becoming
from 24 at 20 UTC to 24 at 22 UTC
Wind 12 kt from the North/Northwest

TAF: LFMV 240200Z 2403/2503 34025G40KT CAVOK BECMG 2413/2415 35020G30KT BECMG 2420/2422 34012KT

Weather observations and forecasts of more than 4000 airports (METAR and TAF reports).

The available stations are represented by yellow and red dots on the map.

Hover mouse over dot to see the name of the station.

Then click to see weather observations and forecasts.

To change the map : click on the green buttons with a black cross to zoom in, on the green button with a dash to zoom out, or on the green arrows for adjacent maps.


METAR-TAF: